Data for 12/12/2010

Time Sea-Level Adjusted Pressure Absolute Pressure Temperature Relative Humidity Dew Point   
(mb) (inHg) (mb) (inHg) (C) (F) (%) (C) (F)
00:05 1021 30.15 851 25.13 -2.8 27 67 -8.1 17.4
00:10 1021 30.15 851 25.13 -3 26.7 68 -8 17.6
00:15 1021 30.15 850 25.1 -3.1 26.4 70 -7.8 17.9
00:20 1021 30.15 851 25.13 -3.2 26.2 69 -8.1 17.5
00:25 1021 30.15 851 25.13 -3.3 26.1 72 -7.7 18.1
00:30 1021 30.15 851 25.13 -3.1 26.4 71 -7.8 18
00:35 1021 30.15 850 25.1 -2.9 26.7 69 -7.8 18
00:40 1021 30.15 850 25.1 -2.9 26.7 71 -7.4 18.6
00:45 1021 30.15 850 25.1 -2.9 26.8 72 -7.3 18.8
00:50 1021 30.15 850 25.1 -3 26.6 72 -7.4 18.7
00:55 1021 30.15 850 25.1 -3.1 26.5 72 -7.4 18.7
01:00 1021 30.15 850 25.1 -3.1 26.4 72 -7.4 18.6
01:05 1021 30.15 850 25.1 -3.1 26.4 72 -7.5 18.5
01:10 1021 30.15 850 25.1 -3 26.7 71 -7.5 18.4
01:15 1021 30.15 850 25.1 -2.8 26.9 70 -7.5 18.5
01:20 1021 30.15 850 25.1 -2.8 26.9 71 -7.5 18.5
01:25 1021 30.15 850 25.1 -2.9 26.8 70 -7.5 18.4
01:30 1021 30.15 850 25.1 -2.9 26.8 70 -7.6 18.4
01:35 1021 30.15 850 25.1 -3.1 26.5 72 -7.4 18.6
01:40 1021 30.15 850 25.1 -3.2 26.3 72 -7.5 18.6
01:45 1021 30.15 850 25.1 -3.3 26.1 73 -7.5 18.5
01:50 1021 30.15 850 25.1 -3.3 26.1 73 -7.4 18.7
01:55 1021 30.15 850 25.1 -3.2 26.3 74 -7.2 19.1
02:00 1021 30.15 850 25.1 -3.2 26.3 74 -7.1 19.2
02:05 1021 30.15 850 25.1 -3.2 26.2 76 -6.9 19.5
02:10 1021 30.15 850 25.1 -3.2 26.2 77 -6.7 20
02:15 1021 30.15 850 25.1 -3.3 26.1 78 -6.5 20.3
02:20 1021 30.15 850 25.1 -3.3 26.1 79 -6.4 20.4
02:25 1021 30.15 850 25.1 -3.3 26.1 79 -6.4 20.5
02:30 1021 30.15 850 25.1 -3.3 26.1 80 -6.2 20.8
02:35 1021 30.15 850 25.1 -3.4 25.9 82 -6.1 21.1
02:40 1021 30.15 850 25.1 -3.5 25.7 84 -5.9 21.5
02:45 1021 30.15 850 25.1 -3.6 25.6 86 -5.6 21.9
02:50 1021 30.15 850 25.1 -3.7 25.4 87 -5.5 22.1
02:55 1021 30.15 850 25.1 -3.6 25.4 87 -5.4 22.2
03:00 1021 30.15 850 25.1 -3.6 25.6 87 -5.4 22.3
03:05 1021 30.15 850 25.1 -3.5 25.6 88 -5.3 22.5
03:10 1021 30.15 850 25.1 -3.5 25.7 88 -5.2 22.7
03:15 1021 30.15 850 25.1 -3.4 25.8 88 -5.2 22.7
03:20 1021 30.15 850 25.1 -3.3 26 88 -5.1 22.8
03:25 1021 30.15 850 25.1 -3.2 26.2 88 -5 23
03:30 1021 30.15 850 25.1 -3.1 26.4 87 -5 23.1
03:35 1021 30.15 850 25.1 -3.3 26.1 88 -5 23.1
03:40 1021 30.15 850 25.1 -3.4 25.9 89 -4.9 23.2
03:45 1021 30.15 850 25.1 -3.4 25.8 90 -4.9 23.3
03:50 1021 30.15 850 25.1 -3.4 25.9 90 -4.8 23.4
03:55 1021 30.15 850 25.1 -3.4 25.8 91 -4.7 23.5
04:00 1021 30.15 850 25.1 -3.4 26 91 -4.6 23.7
04:05 1020 30.12 850 25.1 -3.3 26.1 91 -4.6 23.8
04:10 1020 30.12 850 25.1 -3.3 26.1 91 -4.5 23.9
04:15 1021 30.15 850 25.1 -3.3 26 92 -4.5 23.9
04:20 1020 30.12 850 25.1 -3.4 25.8 92 -4.6 23.8
04:25 1020 30.12 850 25.1 -3.4 25.9 92 -4.5 24
04:30 1020 30.12 850 25.1 -3.3 26 92 -4.4 24.1
04:35 1020 30.12 850 25.1 -3.3 26.1 92 -4.4 24.2
04:40 1020 30.12 849 25.07 -3.3 26.1 93 -4.3 24.2
04:45 1020 30.12 849 25.07 -3.2 26.3 93 -4.2 24.4
04:50 1020 30.12 849 25.07 -3 26.6 92 -4.1 24.6
04:55 1020 30.12 849 25.07 -2.9 26.8 92 -4.1 24.7
05:00 1020 30.12 849 25.07 -2.8 26.9 92 -4 24.8
05:05 1020 30.12 849 25.07 -2.7 27.1 92 -3.9 25
05:10 1020 30.12 849 25.07 -2.7 27.2 92 -3.8 25.1
05:15 1020 30.12 849 25.07 -2.5 27.5 91 -3.7 25.3
05:20 1020 30.12 849 25.07 -2.4 27.7 92 -3.6 25.6
05:25 1020 30.12 849 25.07 -2.2 28.1 91 -3.5 25.7
05:30 1020 30.12 849 25.07 -2 28.4 90 -3.4 25.9
05:35 1020 30.12 849 25.07 -2 28.4 90 -3.4 25.9
05:40 1020 30.12 849 25.07 -1.9 28.5 90 -3.3 26
05:45 1020 30.12 849 25.07 -1.8 28.8 89 -3.3 26
05:50 1019 30.09 849 25.07 -1.6 29 89 -3.2 26.2
05:55 1019 30.09 849 25.07 -1.5 29.3 89 -3.2 26.3
06:00 1020 30.12 849 25.07 -1.4 29.5 88 -3.1 26.3
06:05 1019 30.09 849 25.07 -1.3 29.7 88 -3.1 26.4
06:10 1020 30.12 849 25.07 -1.3 29.8 87 -3.1 26.4
06:15 1020 30.12 849 25.07 -1.3 29.7 88 -3 26.5
06:20 1019 30.09 849 25.07 -1.3 29.6 88 -3.1 26.5
06:25 1019 30.09 849 25.07 -1.4 29.5 88 -3.1 26.3
06:30 1019 30.09 849 25.07 -1.4 29.5 88 -3.2 26.3
06:35 1019 30.09 848 25.04 -1.4 29.4 88 -3.2 26.3
06:40 1019 30.09 848 25.04 -1.6 29.2 89 -3.2 26.2
06:45 1019 30.09 848 25.04 -1.6 29.1 89 -3.2 26.2
06:50 1019 30.09 848 25.04 -1.4 29.5 88 -3.1 26.3
06:55 1019 30.09 848 25.04 -1.3 29.7 87 -3.1 26.4
07:00 1019 30.09 848 25.04 -1.1 30 86 -3.1 26.4
07:05 1019 30.09 848 25.04 -1.3 29.7 87 -3.1 26.3
07:10 1019 30.09 848 25.04 -1.5 29.4 89 -3.1 26.4
07:15 1019 30.09 848 25.04 -1.5 29.4 89 -3.1 26.4
07:20 1019 30.09 848 25.04 -1.5 29.3 89 -3.1 26.4
07:25 1019 30.09 848 25.04 -1.4 29.6 88 -3.1 26.4
07:30 1019 30.09 848 25.04 -1.4 29.4 89 -3 26.7
07:35 1019 30.09 848 25.04 -1.3 29.7 90 -2.8 27
07:40 1019 30.09 848 25.04 -0.8 30.5 87 -2.7 27.2
07:45 1019 30.09 848 25.04 -0.7 30.7 87 -2.7 27.2
07:50 1019 30.09 848 25.04 -0.7 30.8 87 -2.7 27.2
07:55 1019 30.09 848 25.04 -0.5 31 86 -2.6 27.3
08:00 1019 30.09 848 25.04 -0.5 31.1 86 -2.6 27.3
08:05 1019 30.09 848 25.04 -0.5 31 86 -2.5 27.4
08:10 1019 30.09 848 25.04 -0.5 31.2 86 -2.5 27.5
08:15 1019 30.09 848 25.04 -0.5 31.1 86 -2.5 27.5
08:20 1019 30.09 848 25.04 -0.6 30.8 87 -2.5 27.5
08:25 1019 30.09 848 25.04 -0.5 31 87 -2.5 27.5
08:30 1018 30.06 848 25.04 -0.5 31 87 -2.4 27.7
08:35 1018 30.06 848 25.04 -0.5 31.2 86 -2.5 27.5
08:40 1018 30.06 848 25.04 -0 32 85 -2.2 28
08:45 1018 30.06 848 25.04 0.4 32.7 83 -2.2 28
08:50 1018 30.06 848 25.04 0.5 32.8 83 -2.1 28.1
08:55 1019 30.09 848 25.04 0.6 33.2 81 -2.2 28
09:00 1019 30.09 848 25.04 0.9 33.6 79 -2.3 27.9
09:05 1019 30.09 848 25.04 1.2 34.2 78 -2.3 27.9
09:10 1019 30.09 848 25.04 1.4 34.5 78 -2.1 28.2
09:15 1019 30.09 848 25.04 1.5 34.8 77 -2.1 28.2
09:20 1019 30.09 848 25.04 1.6 34.9 77 -2.1 28.2
09:25 1019 30.09 848 25.04 1.7 35 76 -2.1 28.1
09:30 1019 30.09 848 25.04 1.9 35.4 75 -2.1 28.1
09:35 1019 30.09 848 25.04 2 35.6 75 -2 28.3
09:40 1019 30.09 848 25.04 2.1 35.8 73 -2.2 28.1
09:45 1019 30.09 848 25.04 2.5 36.5 72 -2.1 28.3
09:50 1019 30.09 848 25.04 2.7 36.9 71 -2 28.4
09:55 1019 30.09 848 25.04 2.8 37 71 -1.9 28.5
10:00 1019 30.09 848 25.04 2.9 37.2 71 -1.9 28.6
10:05 1019 30.09 848 25.04 2.9 37.3 71 -1.7 28.9
10:10 1019 30.09 848 25.04 3.2 37.7 70 -1.8 28.8
10:15 1019 30.09 848 25.04 3.4 38.1 68 -1.9 28.5
10:20 1019 30.09 848 25.04 3.7 38.6 67 -1.9 28.6
10:25 1019 30.09 848 25.04 3.9 39 68 -1.5 29.2
10:30 1019 30.09 848 25.04 3.8 38.9 68 -1.5 29.3
10:35 1018 30.06 848 25.04 3.9 39 68 -1.4 29.4
10:40 1018 30.06 848 25.04 4 39.2 67 -1.6 29.2
10:45 1018 30.06 848 25.04 4 39.2 67 -1.6 29.1
10:50 1018 30.06 848 25.04 4.1 39.5 66 -1.6 29.1
10:55 1018 30.06 847 25.01 4.3 39.8 66 -1.5 29.3
11:00 1018 30.06 847 25.01 4.4 40 65 -1.7 29
11:05 1018 30.06 847 25.01 4.7 40.4 64 -1.5 29.3
11:10 1018 30.06 847 25.01 4.8 40.6 63 -1.6 29.1
11:15 1018 30.06 847 25.01 5 41 62 -1.6 29.1
11:20 1018 30.06 847 25.01 5.4 41.6 61 -1.6 29.2
11:25 1018 30.06 847 25.01 5.8 42.5 59 -1.5 29.4
11:30 1018 30.06 847 25.01 6.2 43.2 57 -1.5 29.3
11:35 1018 30.06 847 25.01 6.7 44.1 56 -1.4 29.5
11:40 1018 30.06 847 25.01 6.9 44.4 56 -1.3 29.7
11:45 1018 30.06 847 25.01 7 44.6 58 -0.7 30.7
11:50 1018 30.06 847 25.01 7 44.6 56 -1.2 29.9
11:55 1018 30.06 847 25.01 7.3 45.1 55 -1 30.1
12:00 1018 30.06 847 25.01 7.4 45.3 55 -0.9 30.3
12:05 1018 30.06 847 25.01 7.5 45.5 55 -0.8 30.6
12:10 1018 30.06 847 25.01 7.8 46 54 -0.9 30.4
12:15 1018 30.06 847 25.01 7.7 45.8 54 -1 30.1
12:20 1018 30.06 847 25.01 8 46.4 53 -0.9 30.4
12:25 1018 30.06 847 25.01 8.1 46.6 54 -0.7 30.7
12:30 1018 30.06 847 25.01 8 46.5 53 -0.9 30.3
12:35 1018 30.06 847 25.01 8.3 47 53 -0.8 30.6
12:40 1018 30.06 847 25.01 8.3 46.9 54 -0.4 31.3
12:45 1018 30.06 847 25.01 8 46.4 56 -0.2 31.7
12:50 1018 30.06 847 25.01 7 44.5 59 -0.5 31.1
12:55 1018 30.06 847 25.01 6.5 43.6 61 -0.4 31.3
13:00 1018 30.06 847 25.01 6.3 43.4 61 -0.6 30.9
13:05 1018 30.06 847 25.01 6.3 43.4 62 -0.4 31.2
13:10 1018 30.06 847 25.01 6 42.9 63 -0.4 31.3
13:15 1018 30.06 847 25.01 6 42.8 61 -0.8 30.5
13:20 1018 30.06 847 25.01 6.5 43.6 60 -0.8 30.6
13:25 1018 30.06 847 25.01 6.7 44.1 59 -0.6 30.9
13:30 1018 30.06 847 25.01 7 44.6 56 -1.1 30.1
13:35 1018 30.06 847 25.01 7.4 45.3 55 -1.1 30
13:40 1018 30.06 847 25.01 7.7 45.9 54 -0.9 30.4
13:45 1017 30.03 847 25.01 7.8 46.1 53 -1.1 30
13:50 1017 30.03 847 25.01 8.1 46.7 52 -1.1 30.1
13:55 1017 30.03 847 25.01 8.2 46.8 52 -1.1 30
14:00 1017 30.03 846 24.98 8.7 47.7 48 -1.7 29
14:05 1017 30.03 846 24.98 9.3 48.7 47 -1.4 29.4
14:10 1017 30.03 846 24.98 9.1 48.4 47 -1.5 29.4
14:15 1017 30.03 846 24.98 9.5 49.1 45 -1.8 28.7
14:20 1017 30.03 846 24.98 9.8 49.6 45 -1.5 29.4
14:25 1017 30.03 846 24.98 9.6 49.3 46 -1.4 29.5
14:30 1017 30.03 846 24.98 9.5 49 47 -1.4 29.5
14:35 1017 30.03 846 24.98 9.3 48.7 47 -1.4 29.4
14:40 1017 30.03 846 24.98 9.3 48.7 46 -1.7 28.9
14:45 1017 30.03 846 24.98 9.5 49.1 46 -1.6 29.2
14:50 1017 30.03 846 24.98 9.5 49.1 46 -1.4 29.4
14:55 1017 30.03 846 24.98 9.6 49.3 46 -1.4 29.4
15:00 1017 30.03 846 24.98 9.5 49 47 -1.3 29.7
15:05 1017 30.03 846 24.98 9.3 48.8 46 -1.6 29.1
15:10 1017 30.03 846 24.98 9.8 49.6 43 -2.1 28.2
15:15 1017 30.03 846 24.98 10.3 50.5 42 -2.1 28.2
15:20 1017 30.03 846 24.98 10.3 50.6 43 -1.8 28.7
15:25 1017 30.03 847 25.01 10 50.1 43 -1.8 28.8
15:30 1017 30.03 847 25.01 9.9 49.7 44 -1.8 28.8
15:35 1017 30.03 846 24.98 9.8 49.7 44 -1.9 28.6
15:40 1017 30.03 846 24.98 9.7 49.5 45 -1.7 28.9
15:45 1017 30.03 846 24.98 9.5 49.1 45 -1.8 28.8
15:50 1017 30.03 846 24.98 9.7 49.4 43 -2.3 27.8
15:55 1017 30.03 846 24.98 9.8 49.6 43 -2.3 27.8
16:00 1017 30.03 846 24.98 9.8 49.6 42 -2.4 27.7
16:05 1017 30.03 846 24.98 9.6 49.4 44 -2 28.3
16:10 1017 30.03 846 24.98 9.3 48.8 44 -2.2 28
16:15 1017 30.03 846 24.98 9.2 48.6 45 -2 28.3
16:20 1017 30.03 846 24.98 9 48.1 45 -2.3 27.8
16:25 1017 30.03 846 24.98 9.1 48.4 44 -2.4 27.7
16:30 1017 30.03 846 24.98 8.9 48.1 45 -2.4 27.6
16:35 1017 30.03 846 24.98 8.9 48 46 -2.2 28.1
16:40 1017 30.03 846 24.98 8.9 47.9 43 -2.9 26.8
16:45 1017 30.03 846 24.98 9.1 48.4 43 -2.9 26.7
16:50 1017 30.03 846 24.98 9.2 48.6 44 -2.5 27.5
16:55 1017 30.03 846 24.98 9.1 48.4 43 -2.7 27.2
17:00 1017 30.03 846 24.98 9.1 48.4 43 -2.6 27.2
17:05 1017 30.03 846 24.98 9 48.3 43 -2.7 27.1
17:10 1017 30.03 846 24.98 9 48.1 44 -2.7 27.1
17:15 1017 30.03 846 24.98 8.8 47.8 44 -2.7 27.1
17:20 1017 30.03 846 24.98 8.6 47.4 45 -2.7 27.2
17:25 1017 30.03 846 24.98 8.6 47.5 44 -2.8 26.9
17:30 1017 30.03 846 24.98 8.4 47.1 46 -2.7 27.2
17:35 1017 30.03 846 24.98 8.5 47.3 44 -3.1 26.4
17:40 1017 30.03 846 24.98 8.8 47.9 42 -3.3 26
17:45 1017 30.03 846 24.98 9.2 48.6 41 -3.3 26
17:50 1017 30.03 846 24.98 9.4 48.9 41 -3.3 26.1
17:55 1017 30.03 846 24.98 9.4 48.9 41 -3.1 26.5
18:00 1017 30.03 846 24.98 9 48.1 43 -3 26.6
18:05 1017 30.03 846 24.98 8.7 47.7 43 -3.1 26.5
18:10 1017 30.03 846 24.98 8.9 47.9 40 -3.8 25.1
18:15 1017 30.03 846 24.98 9.3 48.7 40 -3.6 25.6
18:20 1017 30.03 846 24.98 9.2 48.5 41 -3.4 25.9
18:25 1017 30.03 846 24.98 8.9 48 43 -3 26.6
18:30 1017 30.03 846 24.98 8.7 47.7 42 -3.3 26.1
18:35 1017 30.03 846 24.98 8.5 47.3 44 -3 26.6
18:40 1016 30 846 24.98 8.3 47 42 -4 24.9
18:45 1016 30 846 24.98 8.9 48 42 -3.3 26.1
18:50 1017 30.03 846 24.98 8.6 47.5 43 -3.4 26
18:55 1017 30.03 846 24.98 8.7 47.7 41 -3.9 25
19:00 1017 30.03 846 24.98 9 48.2 39 -4.1 24.6
19:05 1017 30.03 846 24.98 9.1 48.3 39 -4.1 24.5
19:10 1017 30.03 846 24.98 9.2 48.6 39 -4.1 24.6
19:15 1017 30.03 846 24.98 9.3 48.8 37 -4.7 23.5
19:20 1017 30.03 846 24.98 9.7 49.4 36 -4.8 23.4
19:25 1017 30.03 846 24.98 9.8 49.6 35 -5.1 22.9
19:30 1017 30.03 846 24.98 9.6 49.3 38 -3.9 24.9
19:35 1017 30.03 846 24.98 9.2 48.6 38 -4.2 24.4
19:40 1017 30.03 846 24.98 9.1 48.4 38 -4.3 24.2
19:45 1017 30.03 846 24.98 8.9 47.9 41 -3.5 25.7
19:50 1017 30.03 846 24.98 8.2 46.8 43 -3.6 25.5
19:55 1017 30.03 846 24.98 8.1 46.6 42 -4.1 24.6
20:00 1017 30.03 846 24.98 8.2 46.8 42 -4 24.8
20:05 1017 30.03 846 24.98 8.1 46.7 42 -3.8 25.1
20:10 1017 30.03 846 24.98 8.1 46.5 42 -3.9 25
20:15 1017 30.03 847 25.01 8 46.4 46 -2.9 26.7
20:20 1017 30.03 847 25.01 7.2 45 48 -3 26.6
20:25 1017 30.03 847 25.01 7 44.6 49 -3.1 26.5
20:30 1017 30.03 847 25.01 7 44.6 49 -3 26.6
20:35 1017 30.03 847 25.01 7.1 44.7 48 -3.1 26.3
20:40 1017 30.03 847 25.01 7 44.7 51 -2.4 27.8
20:45 1017 30.03 847 25.01 7 44.5 50 -2.8 26.9
20:50 1017 30.03 847 25.01 7 44.5 48 -3.4 25.9
20:55 1017 30.03 846 24.98 7.2 45 47 -3.3 26
21:00 1017 30.03 846 24.98 7.2 44.9 46 -3.7 25.3
21:05 1017 30.03 846 24.98 7.5 45.5 46 -3.2 26.2
21:10 1017 30.03 847 25.01 7.5 45.4 47 -3.1 26.4
21:15 1017 30.03 847 25.01 7.3 45.1 47 -3.3 26
21:20 1017 30.03 847 25.01 7.2 44.9 47 -3.4 25.8
21:25 1017 30.03 847 25.01 7.1 44.9 47 -3.4 25.9
21:30 1017 30.03 847 25.01 7.3 45.1 43 -4.5 23.9
21:35 1017 30.03 847 25.01 7.7 45.9 43 -3.9 24.9
21:40 1017 30.03 847 25.01 7.9 46.2 40 -4.8 23.4
21:45 1018 30.06 847 25.01 8.5 47.2 36 -5.6 21.9
21:50 1018 30.06 847 25.01 9 48.1 36 -5.3 22.5
21:55 1018 30.06 847 25.01 8.9 48.1 37 -5.1 22.8
22:00 1018 30.06 847 25.01 8.9 48 37 -5 23
22:05 1018 30.06 847 25.01 8.9 47.9 37 -5 23
22:10 1018 30.06 847 25.01 8.7 47.6 39 -4.6 23.7
22:15 1018 30.06 847 25.01 8.3 46.9 38 -5.2 22.7
22:20 1018 30.06 847 25.01 8.3 46.9 39 -4.7 23.5
22:25 1018 30.06 847 25.01 8.1 46.6 41 -4.3 24.2
22:30 1018 30.06 847 25.01 7.8 46 42 -4.2 24.4
22:35 1017 30.03 847 25.01 7.4 45.3 43 -4.3 24.2
22:40 1017 30.03 847 25.01 7.2 45 43 -4.5 23.9
22:45 1018 30.06 847 25.01 7.2 44.9 45 -3.9 25
22:50 1018 30.06 847 25.01 7.1 44.8 43 -4.5 23.9
22:55 1018 30.06 847 25.01 7.4 45.3 42 -4.7 23.5
23:00 1018 30.06 847 25.01 7.6 45.8 42 -4.5 23.9
23:05 1018 30.06 847 25.01 7.9 46.2 37 -5.8 21.6
23:10 1017 30.03 847 25.01 8.3 46.9 37 -5.5 22.2
23:15 1017 30.03 847 25.01 8.2 46.8 39 -5 23
23:20 1017 30.03 847 25.01 8.1 46.5 37 -5.6 21.9
23:25 1017 30.03 847 25.01 8.4 47.1 37 -5.5 22.1
23:30 1017 30.03 847 25.01 8.5 47.3 36 -5.5 22.1
23:35 1017 30.03 847 25.01 8.4 47.2 37 -5.3 22.5
23:40 1017 30.03 847 25.01 8.1 46.6 39 -5.1 22.8
23:45 1017 30.03 847 25.01 7.9 46.2 38 -5.4 22.3
23:50 1017 30.03 846 24.98 8 46.4 39 -5.1 22.8
23:55 1017 30.03 846 24.98 7.9 46.1 39 -5.2 22.6
24:00 1017 30.03 846 24.98 8 46.3 38 -5.4 22.2